LIMW/AOT METAR and TAF weather

Enter ICAO airport designator
Station Type Date Time Source
LIMW METAR 2019/06/16 19:50 UTC NOAA

LIMW 161950Z AUTO VRB01KT 9999 NCD 23/11 Q1016


Station Type Date Time Source
LIMW Decoded METAR 2019/06/16 19:50 UTC NOAA

Station name not available
Jun 16, 2019 - 03:50 PM EDT / 2019.06.16 1950 UTC
Wind: Variable at 1 MPH (1 KT):0
Visibility: greater than 7 mile(s):0
Temperature: 73 F (23 C)
Dew Point: 51 F (11 C)
Relative Humidity: 46%
Pressure (altimeter): 30.00 in. Hg (1016 hPa)
ob: LIMW 161950Z AUTO VRB01KT 9999 NCD 23/11 Q1016
cycle: 20

Station Type Date Time Source
LIMW TAF UTC NOAA

Error!

Example: see airport list